Girard, Ohio
Current Conditions -  °F | °C
As of 4:51 AM on Saturday 22 Nov 2014 (Local Time) from KYNG Reporting Station
Overcast Overcast  
Wind Chill: 11°   Ceiling: 17000
Heat Index: 22°   Visibility: 10mi
Dew Point:   Wind: 10mph
Humidity: 58%   Direction: 170°S
Pressure: 30.3"   Gusts: NA
Location:  41.15°N, 80.7°W
Report Text: KYNG 220951Z 17009KT 10SM BKN170 OVC220 M06/M13 A3030 RMK AO2 SLP280 T10561128
Loading
Personal Weather Stations






























Interactive Weather Map New forecast layout! Learn more

10-Day Weather Forecast

Advertisements
Track Severe Weather on mobile